map of INV home
INV - Airport
Location
City:  Inverness, Inverness, Scotland, United Kingdom
ICAO:EGPE
IATA:INV

Details
Type:Airport (Aerodrome, Airfield)
Use:Public/Civil
Latitude:5732'33"N (57.542500)
Longitude:402'51"W (-4.047499)
Elevation:31 ft (9 m)
Variation:2.82W (WMM2015 magnetic declination)
0.18 annual change
Runways:2
Longest:9491 × 151 ft (2893 × 46 m), paved

Time
Time Zone:UTC+0 (DST+1)
Local Time:

Weather
METAR:EGPE 220950Z 24012KT 9999 FEW045 12/07 Q1000

Related Locations
Nearby:
Farthest:SZS: 11625 mi / 18708 km
Ryan's Creek, Stewart Island, STL, NZ

Find:

   beyond  
but within

Other Information
Maps:
NOTAMs:
Links:
Sources:

  
flag of United Kingdom
flag of Scotland
  

Airport Diagram

Airport diagram for INV

Airport diagram PDF

Sectional Chart

Flight Planning
at skyvector.com

Satellite Image

Google Maps Satellite view

 

Copyright © 2004-2018 Karl L. Swartz. All rights reserved.
The Great Circle Mapper name and logo are trademarks of the Great Circle Mapper.
All other trademarks mentioned herein belong to their respective owners.
Please see credits for attibutions and further copyright information.

  Follow gcmap on Facebook Follow gcmap on Twitter Follow gcmap on Google+ GCmap on LinkedIn

hCard Microformat

Geo Microformat